Walmer, South Africa
Current Conditions -  °F | °C
As of 11:00 AM on Wednesday 22 Oct 2014 (Local Time) from FAPE Reporting Station
Clear Clear  
Wind Chill: 70°   Ceiling: Unl
Heat Index: 70°   Visibility: 6mi
Dew Point: 59°   Wind: 22mph
Humidity: 68%   Direction: 60°ENE
Pressure: 30.06"   Gusts: NA
Location:  33.98°S, 25.58°E
Report Text: FAPE 220900Z 06019KT CAVOK 21/15 Q1018 NOSIG
Loading
Personal Weather Stations






























Interactive Weather Map
Tropical Storm Tracking
New forecast layout! Learn more

10-Day Weather Forecast

Advertisements
Track Severe Weather on mobile